Time;durP1;ratioP1;P1;durP2;ratioP2;P2;SDS_P1;SDS_P2;PMS_P1;PMS_P2;Temp;Humidity;BMP_temperature;BMP_pressure;BME280_temperature;BME280_humidity;BME280_pressure;Samples;Min_cycle;Max_cycle;Signal;HPM_P1;HPM_P2
2022/03/16 00:00:00;;;;;;;;;;;;;;;;;;351433;28;912;-81
2022/03/16 00:00:11;;;;;;;;;;;;;;;;;;351386;28;1007;-81
2022/03/16 00:00:21;;;;;;;;;;;;;;;;;;351399;28;798;-81
2022/03/16 00:00:31;;;;;;;;;;;;;;;;;;351446;28;853;-81
2022/03/16 00:00:41;;;;;;;;;;;;;;;;;;351420;28;790;-81
2022/03/16 00:00:52;;;;;;;;;;;;;;;;;;351414;28;897;-81
2022/03/16 00:01:02;;;;;;;;;;;;;;;;;;351448;28;837;-81
2022/03/16 00:01:12;;;;;;;;;;;;;;;;;;351347;28;857;-81
2022/03/16 00:01:23;;;;;;;;;;;;;;;;;;351257;28;1014;-81
2022/03/16 00:01:33;;;;;;;;;;;;;;;;;;351361;28;1027;-81
2022/03/16 00:01:43;;;;;;;;;;;;;;;;;;351399;28;920;-81
2022/03/16 00:01:54;;;;;;;;;;;;;;;;;;351391;28;1131;-81
2022/03/16 00:02:04;;;;;;;;;;;;;;;;;;351400;28;904;-81
2022/03/16 00:02:19;;;;;;;;;;;;;;;;;;351322;28;990;-81
2022/03/16 00:02:29;;;;;;;;;;;;;;;;;;351049;28;1638;-81
2022/03/16 00:02:40;;;;;;;;;;;;;;;;;;349997;28;1748;-81
2022/03/16 00:02:50;;;;;;;;;;;;;;;;;;349909;28;1478;-82
2022/03/16 00:03:00;;;;;;;;;;;;;;;;;;350252;28;1564;-81
2022/03/16 00:03:10;;;;;;;;;;;;;;;;;;351056;28;1512;-81
2022/03/16 00:03:21;;;;;;;;;;;;;;;;;;350151;28;1394;-82
2022/03/16 00:03:31;;;;;;;;;;;;;;;;;;351354;28;1018;-81
2022/03/16 00:03:41;;;;;;;;;;;;;;;;;;351397;28;976;-81
2022/03/16 00:03:52;;;;;;;;;;;;;;;;;;351335;28;980;-81
2022/03/16 00:04:02;;;;;;;;;;;;;;;;;;351387;28;1894;-81
2022/03/16 00:04:12;;;;;;;;;;;;;;;;;;351384;28;928;-81
2022/03/16 00:04:22;;;;;;;;;;;;;;;;;;351468;28;920;-81
2022/03/16 00:04:33;;;;;;;;;;;;;;;;;;351422;28;1099;-81
2022/03/16 00:04:43;;;;;;;;;;;;;;;;;;351351;28;933;-81
2022/03/16 00:04:54;;;;;;;;;;;;;;;;;;351435;28;857;-81
2022/03/16 00:05:05;;;;;;;;;;;;;;;;;;351442;28;940;-81
2022/03/16 00:05:15;;;;;;;;;;;;;;;;;;351268;28;1167;-81
2022/03/16 00:05:26;;;;;;;;;;;;;;;;;;351324;28;933;-81
2022/03/16 00:05:36;;;;;;;;;;;;;;;;;;351330;28;786;-81
2022/03/16 00:05:47;;;;;;;;;;;;;;;;;;351411;28;913;-81
2022/03/16 00:05:57;;;;;;;;;;;;;;;;;;351441;28;999;-81
2022/03/16 00:06:07;;;;;;;;;;;;;;;;;;351420;28;988;-81
2022/03/16 00:06:17;;;;;;;;;;;;;;;;;;351316;28;1012;-81
2022/03/16 00:06:27;;;;;;;;;;;;;;;;;;351413;28;901;-81
2022/03/16 00:06:38;;;;;;;;;;;;;;;;;;351431;28;1024;-81
2022/03/16 00:06:48;;;;;;;;;;;;;;;;;;351413;28;988;-81
2022/03/16 00:06:58;;;;;;;;;;;;;;;;;;351369;28;983;-81
2022/03/16 00:07:08;;;;;;;;;;;;;;;;;;351346;28;1347;-81
2022/03/16 00:07:19;;;;;;;;;;;;;;;;;;351422;28;798;-81
2022/03/16 00:07:29;;;;;;;;;;;;;;;;;;349838;28;1464;-82
2022/03/16 00:07:40;;;;;;;;;;;;;;;;;;350671;28;1634;-81
2022/03/16 00:07:50;;;;;;;;;;;;;;;;;;351407;28;968;-81
2022/03/16 00:08:00;;;;;;;;;;;;;;;;;;351389;28;1202;-81
2022/03/16 00:08:12;;;;;;;;;;;;;;;;;;351406;28;920;-81
2022/03/16 00:08:22;;;;;;;;;;;;;;;;;;351346;28;1007;-81
2022/03/16 00:08:32;;;;;;;;;;;;;;;;;;351388;28;877;-81
2022/03/16 00:08:42;;;;;;;;;;;;;;;;;;351423;28;955;-81
2022/03/16 00:08:53;;;;;;;;;;;;;;;;;;351454;28;837;-81
2022/03/16 00:09:03;;;;;;;;;;;;;;;;;;351386;28;788;-81
2022/03/16 00:09:13;;;;;;;;;;;;;;;;;;351452;28;983;-81
2022/03/16 00:09:23;;;;;;;;;;;;;;;;;;351380;28;972;-81
2022/03/16 00:09:34;;;;;;;;;;;;;;;;;;351450;28;908;-81
2022/03/16 00:09:44;;;;;;;;;;;;;;;;;;351302;28;932;-81
2022/03/16 00:09:54;;;;;;;;;;;;;;;;;;351427;28;976;-81
2022/03/16 00:10:07;;;;;;;;;;;;;;;;;;351373;28;832;-81
2022/03/16 00:10:17;;;;;;;;;;;;;;;;;;351357;28;936;-81
2022/03/16 00:10:28;;;;;;;;;;;;;;;;;;351391;28;902;-81
2022/03/16 00:10:38;;;;;;;;;;;;;;;;;;351360;28;968;-81
2022/03/16 00:10:48;;;;;;;;;;;;;;;;;;351410;28;971;-81
2022/03/16 00:10:58;;;;;;;;;;;;;;;;;;350512;28;1577;-80
2022/03/16 00:11:09;;;;;;;;;;;;;;;;;;350231;28;1764;-81
2022/03/16 00:11:19;;;;;;;;;;;;;;;;;;351318;28;1027;-81
2022/03/16 00:11:29;;;;;;;;;;;;;;;;;;351358;28;999;-81
2022/03/16 00:11:39;;;;;;;;;;;;;;;;;;351389;28;912;-80
2022/03/16 00:11:49;;;;;;;;;;;;;;;;;;351291;28;1031;-80
2022/03/16 00:12:00;;;;;;;;;;;;;;;;;;351341;28;907;-80
2022/03/16 00:12:11;;;;;;;;;;;;;;;;;;350533;28;1169;-81
2022/03/16 00:12:21;;;;;;;;;;;;;;;;;;351334;28;940;-80
2022/03/16 00:12:31;;;;;;;;;;;;;;;;;;351392;28;857;-80
2022/03/16 00:12:42;;;;;;;;;;;;;;;;;;351386;28;897;-80
2022/03/16 00:12:52;;;;;;;;;;;;;;;;;;351391;28;825;-80
2022/03/16 00:13:02;;;;;;;;;;;;;;;;;;351337;28;956;-80
2022/03/16 00:13:12;;;;;;;;;;;;;;;;;;351317;28;932;-81
2022/03/16 00:13:23;;;;;;;;;;;;;;;;;;351133;28;991;-81
2022/03/16 00:13:33;;;;;;;;;;;;;;;;;;351154;28;1138;-80
2022/03/16 00:13:43;;;;;;;;;;;;;;;;;;351089;28;994;-81
2022/03/16 00:13:54;;;;;;;;;;;;;;;;;;351213;28;979;-81
2022/03/16 00:14:04;;;;;;;;;;;;;;;;;;351206;28;928;-81
2022/03/16 00:14:14;;;;;;;;;;;;;;;;;;351171;28;988;-80
2022/03/16 00:14:24;;;;;;;;;;;;;;;;;;351183;28;1035;-81
2022/03/16 00:14:35;;;;;;;;;;;;;;;;;;351207;28;901;-80
2022/03/16 00:14:46;;;;;;;;;;;;;;;;;;351212;28;936;-81
2022/03/16 00:14:56;;;;;;;;;;;;;;;;;;351422;28;786;-81
2022/03/16 00:15:07;;;;;;;;;;;;;;;;;;351359;28;917;-80
2022/03/16 00:15:17;;;;;;;;;;;;;;;;;;351377;28;838;-81
2022/03/16 00:15:27;;;;;;;;;;;;;;;;;;351344;28;924;-80
2022/03/16 00:15:38;;;;;;;;;;;;;;;;;;351394;28;928;-80
2022/03/16 00:15:48;;;;;;;;;;;;;;;;;;351372;28;1039;-80
2022/03/16 00:15:58;;;;;;;;;;;;;;;;;;351350;28;924;-80
2022/03/16 00:16:08;;;;;;;;;;;;;;;;;;351411;28;976;-81
2022/03/16 00:16:18;;;;;;;;;;;;;;;;;;350776;28;1776;-81
2022/03/16 00:16:29;;;;;;;;;;;;;;;;;;350054;28;1509;-81
2022/03/16 00:16:39;;;;;;;;;;;;;;;;;;350281;28;1550;-81
2022/03/16 00:16:49;;;;;;;;;;;;;;;;;;351149;28;803;-81
2022/03/16 00:16:59;;;;;;;;;;;;;;;;;;351300;28;1070;-81
2022/03/16 00:17:10;;;;;;;;;;;;;;;;;;351258;28;959;-81
2022/03/16 00:17:20;;;;;;;;;;;;;;;;;;351230;28;844;-82
2022/03/16 00:17:31;;;;;;;;;;;;;;;;;;351733;28;1232;-81
2022/03/16 00:17:41;;;;;;;;;;;;;;;;;;352591;28;991;-81
2022/03/16 00:17:51;;;;;;;;;;;;;;;;;;352524;28;1105;-81
2022/03/16 00:18:02;;;;;;;;;;;;;;;;;;352539;28;986;-81
2022/03/16 00:18:13;;;;;;;;;;;;;;;;;;352669;28;991;-81
2022/03/16 00:18:23;;;;;;;;;;;;;;;;;;352657;28;992;-81
2022/03/16 00:18:33;;;;;;;;;;;;;;;;;;352650;28;837;-81
2022/03/16 00:18:43;;;;;;;;;;;;;;;;;;352681;28;921;-80
2022/03/16 00:18:54;;;;;;;;;;;;;;;;;;352646;28;960;-81
2022/03/16 00:19:04;;;;;;;;;;;;;;;;;;352555;28;1142;-81
2022/03/16 00:19:14;;;;;;;;;;;;;;;;;;352665;28;1040;-81
2022/03/16 00:19:24;;;;;;;;;;;;;;;;;;352688;28;968;-81
2022/03/16 00:19:35;;;;;;;;;;;;;;;;;;352669;28;852;-81
2022/03/16 00:19:46;;;;;;;;;;;;;;;;;;352623;28;940;-81
2022/03/16 00:19:56;;;;;;;;;;;;;;;;;;352694;28;971;-81
2022/03/16 00:20:07;;;;;;;;;;;;;;;;;;352656;28;845;-81
2022/03/16 00:20:17;;;;;;;;;;;;;;;;;;352686;28;888;-81
2022/03/16 00:20:27;;;;;;;;;;;;;;;;;;352690;28;924;-81
2022/03/16 00:20:37;;;;;;;;;;;;;;;;;;352594;28;916;-81
2022/03/16 00:20:48;;;;;;;;;;;;;;;;;;352669;28;840;-81
2022/03/16 00:20:59;;;;;;;;;;;;;;;;;;352686;28;979;-81
2022/03/16 00:21:09;;;;;;;;;;;;;;;;;;352677;28;844;-81
2022/03/16 00:21:19;;;;;;;;;;;;;;;;;;352627;28;1059;-81
2022/03/16 00:21:30;;;;;;;;;;;;;;;;;;352625;28;845;-81
2022/03/16 00:21:40;;;;;;;;;;;;;;;;;;352617;28;928;-80
2022/03/16 00:21:50;;;;;;;;;;;;;;;;;;352660;28;979;-80
2022/03/16 00:22:01;;;;;;;;;;;;;;;;;;352699;28;833;-82
2022/03/16 00:22:12;;;;;;;;;;;;;;;;;;352470;28;1002;-81
2022/03/16 00:22:22;;;;;;;;;;;;;;;;;;352668;28;758;-81
2022/03/16 00:22:32;;;;;;;;;;;;;;;;;;352620;28;754;-81
2022/03/16 00:22:42;;;;;;;;;;;;;;;;;;352658;28;912;-80
2022/03/16 00:22:53;;;;;;;;;;;;;;;;;;352688;28;836;-81
2022/03/16 00:23:04;;;;;;;;;;;;;;;;;;352664;28;818;-81
2022/03/16 00:23:15;;;;;;;;;;;;;;;;;;352774;28;936;-81
2022/03/16 00:23:26;;;;;;;;;;;;;;;;;;352805;28;840;-81
2022/03/16 00:23:36;;;;;;;;;;;;;;;;;;352855;28;920;-80
2022/03/16 00:23:47;;;;;;;;;;;;;;;;;;352759;28;928;-80
2022/03/16 00:23:57;;;;;;;;;;;;;;;;;;352664;28;1967;-81
2022/03/16 00:24:08;;;;;;;;;;;;;;;;;;352777;27;908;-81
2022/03/16 00:24:18;;;;;;;;;;;;;;;;;;352746;28;833;-81
2022/03/16 00:24:28;;;;;;;;;;;;;;;;;;352813;28;916;-81
2022/03/16 00:24:38;;;;;;;;;;;;;;;;;;352785;28;912;-81
2022/03/16 00:24:49;;;;;;;;;;;;;;;;;;350410;28;1677;-81
2022/03/16 00:25:01;;;;;;;;;;;;;;;;;;350956;28;1763;-81
2022/03/16 00:25:12;;;;;;;;;;;;;;;;;;351347;28;1059;-81
2022/03/16 00:25:23;;;;;;;;;;;;;;;;;;351378;28;908;-80
2022/03/16 00:25:34;;;;;;;;;;;;;;;;;;351352;28;898;-81
2022/03/16 00:25:44;;;;;;;;;;;;;;;;;;351387;28;915;-81
2022/03/16 00:25:54;;;;;;;;;;;;;;;;;;351374;28;964;-81
2022/03/16 00:26:05;;;;;;;;;;;;;;;;;;351368;28;956;-80
2022/03/16 00:26:15;;;;;;;;;;;;;;;;;;351389;28;892;-81
2022/03/16 00:26:25;;;;;;;;;;;;;;;;;;351261;28;936;-80
2022/03/16 00:26:35;;;;;;;;;;;;;;;;;;351350;28;1242;-81
2022/03/16 00:26:45;;;;;;;;;;;;;;;;;;351077;28;1588;-81
2022/03/16 00:26:56;;;;;;;;;;;;;;;;;;350232;28;1717;-81
2022/03/16 00:27:06;;;;;;;;;;;;;;;;;;351411;27;802;-81
2022/03/16 00:27:16;;;;;;;;;;;;;;;;;;351248;28;1651;-80
2022/03/16 00:27:26;;;;;;;;;;;;;;;;;;349982;28;1716;-81
2022/03/16 00:27:37;;;;;;;;;;;;;;;;;;351361;28;925;-81
2022/03/16 00:27:47;;;;;;;;;;;;;;;;;;351348;28;948;-80
2022/03/16 00:27:57;;;;;;;;;;;;;;;;;;350965;28;1710;-81
2022/03/16 00:28:07;;;;;;;;;;;;;;;;;;350379;28;1748;-80
2022/03/16 00:28:18;;;;;;;;;;;;;;;;;;351381;28;921;-81
2022/03/16 00:28:28;;;;;;;;;;;;;;;;;;351289;28;1012;-81
2022/03/16 00:28:38;;;;;;;;;;;;;;;;;;351403;28;877;-81
2022/03/16 00:28:49;;;;;;;;;;;;;;;;;;351249;28;1126;-80
2022/03/16 00:28:59;;;;;;;;;;;;;;;;;;351331;28;995;-80
2022/03/16 00:29:09;;;;;;;;;;;;;;;;;;351383;28;912;-81
2022/03/16 00:29:19;;;;;;;;;;;;;;;;;;351348;28;968;-81
2022/03/16 00:29:30;;;;;;;;;;;;;;;;;;351377;28;853;-81
2022/03/16 00:29:40;;;;;;;;;;;;;;;;;;351354;28;1011;-80
2022/03/16 00:29:50;;;;;;;;;;;;;;;;;;351356;28;890;-81
2022/03/16 00:30:00;;;;;;;;;;;;;;;;;;351302;28;1041;-81
2022/03/16 00:30:11;;;;;;;;;;;;;;;;;;351356;28;917;-80
2022/03/16 00:30:21;;;;;;;;;;;;;;;;;;351299;28;1227;-80
2022/03/16 00:30:31;;;;;;;;;;;;;;;;;;351358;28;929;-80
2022/03/16 00:30:42;;;;;;;;;;;;;;;;;;351339;28;846;-81
2022/03/16 00:30:52;;;;;;;;;;;;;;;;;;351398;28;841;-80
2022/03/16 00:31:02;;;;;;;;;;;;;;;;;;350873;28;1678;-81
2022/03/16 00:31:13;;;;;;;;;;;;;;;;;;349925;28;1474;-81
2022/03/16 00:31:23;;;;;;;;;;;;;;;;;;350470;28;1447;-81
2022/03/16 00:31:34;;;;;;;;;;;;;;;;;;351073;28;1483;-81
2022/03/16 00:31:44;;;;;;;;;;;;;;;;;;351323;28;976;-80
2022/03/16 00:31:54;;;;;;;;;;;;;;;;;;351339;28;968;-80
2022/03/16 00:32:05;;;;;;;;;;;;;;;;;;351382;28;793;-80
2022/03/16 00:32:15;;;;;;;;;;;;;;;;;;351339;28;933;-80
2022/03/16 00:32:25;;;;;;;;;;;;;;;;;;350109;28;1398;-81
2022/03/16 00:32:36;;;;;;;;;;;;;;;;;;351328;28;825;-81
2022/03/16 00:32:46;;;;;;;;;;;;;;;;;;351398;28;975;-81
2022/03/16 00:32:56;;;;;;;;;;;;;;;;;;351397;28;818;-81
2022/03/16 00:33:06;;;;;;;;;;;;;;;;;;351196;28;1119;-81
2022/03/16 00:33:16;;;;;;;;;;;;;;;;;;351335;28;999;-81
2022/03/16 00:33:27;;;;;;;;;;;;;;;;;;351233;28;1137;-81
2022/03/16 00:33:37;;;;;;;;;;;;;;;;;;351408;28;851;-81
2022/03/16 00:33:47;;;;;;;;;;;;;;;;;;351349;28;980;-81
2022/03/16 00:33:57;;;;;;;;;;;;;;;;;;351335;28;992;-81
2022/03/16 00:34:07;;;;;;;;;;;;;;;;;;351391;28;857;-80
2022/03/16 00:34:18;;;;;;;;;;;;;;;;;;351351;28;960;-81
2022/03/16 00:34:29;;;;;;;;;;;;;;;;;;351292;28;1192;-81
2022/03/16 00:34:40;;;;;;;;;;;;;;;;;;351367;28;980;-80
2022/03/16 00:34:50;;;;;;;;;;;;;;;;;;351323;28;956;-81
2022/03/16 00:35:00;;;;;;;;;;;;;;;;;;351348;28;976;-80
2022/03/16 00:35:10;;;;;;;;;;;;;;;;;;351365;28;979;-81
2022/03/16 00:35:21;;;;;;;;;;;;;;;;;;351402;28;1027;-81
2022/03/16 00:35:31;;;;;;;;;;;;;;;;;;351373;28;920;-81
2022/03/16 00:35:41;;;;;;;;;;;;;;;;;;351376;28;924;-80
2022/03/16 00:35:52;;;;;;;;;;;;;;;;;;351328;28;1022;-80
2022/03/16 00:36:02;;;;;;;;;;;;;;;;;;351354;28;932;-80
2022/03/16 00:36:12;;;;;;;;;;;;;;;;;;351353;28;1019;-80
2022/03/16 00:36:22;;;;;;;;;;;;;;;;;;351359;28;857;-80
2022/03/16 00:36:33;;;;;;;;;;;;;;;;;;351391;28;857;-81
2022/03/16 00:36:43;;;;;;;;;;;;;;;;;;351330;28;840;-81
2022/03/16 00:36:53;;;;;;;;;;;;;;;;;;351361;28;979;-80
2022/03/16 00:37:04;;;;;;;;;;;;;;;;;;351338;28;964;-80
2022/03/16 00:37:14;;;;;;;;;;;;;;;;;;351406;28;845;-81
2022/03/16 00:37:24;;;;;;;;;;;;;;;;;;351330;28;995;-80
2022/03/16 00:37:34;;;;;;;;;;;;;;;;;;351389;28;792;-81
2022/03/16 00:37:46;;;;;;;;;;;;;;;;;;351363;28;1093;-81
2022/03/16 00:37:56;;;;;;;;;;;;;;;;;;351313;28;1011;-80
2022/03/16 00:38:06;;;;;;;;;;;;;;;;;;351362;28;865;-81
2022/03/16 00:38:16;;;;;;;;;;;;;;;;;;351350;28;1064;-80
2022/03/16 00:38:27;;;;;;;;;;;;;;;;;;350878;28;1675;-80
2022/03/16 00:38:37;;;;;;;;;;;;;;;;;;349850;28;1028;-80
2022/03/16 00:38:48;;;;;;;;;;;;;;;;;;349928;28;941;-81
2022/03/16 00:38:58;;;;;;;;;;;;;;;;;;349888;28;844;-80
2022/03/16 00:39:09;;;;;;;;;;;;;;;;;;349972;28;929;-80
2022/03/16 00:39:19;;;;;;;;;;;;;;;;;;349976;28;868;-81
2022/03/16 00:39:29;;;;;;;;;;;;;;;;;;349937;28;905;-81
2022/03/16 00:39:39;;;;;;;;;;;;;;;;;;350005;28;774;-81
2022/03/16 00:39:49;;;;;;;;;;;;;;;;;;349986;28;913;-80
2022/03/16 00:40:00;;;;;;;;;;;;;;;;;;349941;28;866;-81
2022/03/16 00:40:11;;;;;;;;;;;;;;;;;;349902;28;910;-80
2022/03/16 00:40:21;;;;;;;;;;;;;;;;;;349810;28;812;-81
2022/03/16 00:40:31;;;;;;;;;;;;;;;;;;349788;28;876;-80
2022/03/16 00:40:42;;;;;;;;;;;;;;;;;;349956;28;972;-81
2022/03/16 00:40:52;;;;;;;;;;;;;;;;;;349965;28;951;-81
2022/03/16 00:41:03;;;;;;;;;;;;;;;;;;349916;28;851;-80
2022/03/16 00:41:13;;;;;;;;;;;;;;;;;;349971;28;933;-81
2022/03/16 00:41:23;;;;;;;;;;;;;;;;;;350007;28;842;-81
2022/03/16 00:41:37;;;;;;;;;;;;;;;;;;349879;28;1004;-81
2022/03/16 00:41:47;;;;;;;;;;;;;;;;;;349964;28;1053;-81
2022/03/16 00:41:57;;;;;;;;;;;;;;;;;;350024;28;837;-81
2022/03/16 00:42:07;;;;;;;;;;;;;;;;;;349887;28;870;-81
2022/03/16 00:42:18;;;;;;;;;;;;;;;;;;350035;28;1031;-80
2022/03/16 00:42:28;;;;;;;;;;;;;;;;;;349998;28;1019;-81
2022/03/16 00:42:38;;;;;;;;;;;;;;;;;;349990;28;849;-80
2022/03/16 00:42:49;;;;;;;;;;;;;;;;;;349975;28;972;-81
2022/03/16 00:43:00;;;;;;;;;;;;;;;;;;349944;28;960;-81
2022/03/16 00:43:10;;;;;;;;;;;;;;;;;;350349;28;1625;-80
2022/03/16 00:43:21;;;;;;;;;;;;;;;;;;350286;28;1740;-81
2022/03/16 00:43:32;;;;;;;;;;;;;;;;;;351378;28;928;-80
2022/03/16 00:43:42;;;;;;;;;;;;;;;;;;351272;28;1137;-80
2022/03/16 00:43:52;;;;;;;;;;;;;;;;;;351353;28;929;-81
2022/03/16 00:44:03;;;;;;;;;;;;;;;;;;351279;28;1906;-81
2022/03/16 00:44:14;;;;;;;;;;;;;;;;;;351267;28;909;-80
2022/03/16 00:44:24;;;;;;;;;;;;;;;;;;351381;28;920;-81
2022/03/16 00:44:35;;;;;;;;;;;;;;;;;;351370;28;1004;-81
2022/03/16 00:44:45;;;;;;;;;;;;;;;;;;351315;28;903;-82
2022/03/16 00:44:56;;;;;;;;;;;;;;;;;;351393;28;921;-81
2022/03/16 00:45:06;;;;;;;;;;;;;;;;;;351281;28;924;-81
2022/03/16 00:45:16;;;;;;;;;;;;;;;;;;351330;28;992;-80
2022/03/16 00:45:27;;;;;;;;;;;;;;;;;;351371;28;837;-80
2022/03/16 00:45:37;;;;;;;;;;;;;;;;;;351420;28;991;-80
2022/03/16 00:45:47;;;;;;;;;;;;;;;;;;351366;28;837;-80
2022/03/16 00:45:57;;;;;;;;;;;;;;;;;;351392;28;808;-81
2022/03/16 00:46:07;;;;;;;;;;;;;;;;;;351342;28;1019;-81
2022/03/16 00:46:18;;;;;;;;;;;;;;;;;;351291;28;1012;-76
2022/03/16 00:46:28;;;;;;;;;;;;;;;;;;351311;28;932;-76
2022/03/16 00:46:38;;;;;;;;;;;;;;;;;;351384;28;782;-76
2022/03/16 00:46:48;;;;;;;;;;;;;;;;;;351330;28;849;-76
2022/03/16 00:46:59;;;;;;;;;;;;;;;;;;351387;28;802;-76
2022/03/16 00:47:09;;;;;;;;;;;;;;;;;;351276;28;1003;-76
2022/03/16 00:47:19;;;;;;;;;;;;;;;;;;351274;28;983;-76
2022/03/16 00:47:30;;;;;;;;;;;;;;;;;;351350;28;1003;-76
2022/03/16 00:47:40;;;;;;;;;;;;;;;;;;351359;28;826;-76
2022/03/16 00:47:50;;;;;;;;;;;;;;;;;;351328;28;991;-76
2022/03/16 00:48:00;;;;;;;;;;;;;;;;;;351434;28;873;-76
2022/03/16 00:48:11;;;;;;;;;;;;;;;;;;351341;28;845;-76
2022/03/16 00:48:21;;;;;;;;;;;;;;;;;;351313;28;889;-76
2022/03/16 00:48:31;;;;;;;;;;;;;;;;;;351310;28;1150;-76
2022/03/16 00:48:41;;;;;;;;;;;;;;;;;;351348;28;976;-76
2022/03/16 00:48:52;;;;;;;;;;;;;;;;;;351315;28;912;-76
2022/03/16 00:49:02;;;;;;;;;;;;;;;;;;351379;28;944;-76
2022/03/16 00:49:13;;;;;;;;;;;;;;;;;;351238;28;1024;-76
2022/03/16 00:49:23;;;;;;;;;;;;;;;;;;351300;28;988;-75
2022/03/16 00:49:33;;;;;;;;;;;;;;;;;;351377;28;944;-76
2022/03/16 00:49:43;;;;;;;;;;;;;;;;;;351383;28;834;-76
2022/03/16 00:49:53;;;;;;;;;;;;;;;;;;351270;28;1007;-76
2022/03/16 00:50:04;;;;;;;;;;;;;;;;;;351359;28;984;-76
2022/03/16 00:50:14;;;;;;;;;;;;;;;;;;351239;28;1080;-76
2022/03/16 00:50:24;;;;;;;;;;;;;;;;;;351328;28;1011;-76
2022/03/16 00:50:36;;;;;;;;;;;;;;;;;;351338;28;984;-76
2022/03/16 00:50:46;;;;;;;;;;;;;;;;;;350587;28;1686;-76
2022/03/16 00:50:56;;;;;;;;;;;;;;;;;;350716;28;1705;-76
2022/03/16 00:51:08;;;;;;;;;;;;;;;;;;351388;28;917;-76
2022/03/16 00:51:18;;;;;;;;;;;;;;;;;;351160;28;1253;-76
2022/03/16 00:51:28;;;;;;;;;;;;;;;;;;351351;28;988;-76
2022/03/16 00:51:38;;;;;;;;;;;;;;;;;;351411;28;795;-76
2022/03/16 00:51:49;;;;;;;;;;;;;;;;;;351379;28;904;-76
2022/03/16 00:51:59;;;;;;;;;;;;;;;;;;351388;28;928;-76
2022/03/16 00:52:09;;;;;;;;;;;;;;;;;;351347;28;954;-76
2022/03/16 00:52:20;;;;;;;;;;;;;;;;;;351273;28;1289;-76
2022/03/16 00:52:30;;;;;;;;;;;;;;;;;;351407;28;885;-76
2022/03/16 00:52:40;;;;;;;;;;;;;;;;;;351396;28;900;-76
2022/03/16 00:52:50;;;;;;;;;;;;;;;;;;351442;28;963;-76
2022/03/16 00:53:00;;;;;;;;;;;;;;;;;;351365;28;856;-76
2022/03/16 00:53:11;;;;;;;;;;;;;;;;;;351328;28;964;-76
2022/03/16 00:53:21;;;;;;;;;;;;;;;;;;349735;28;1557;-76
2022/03/16 00:53:34;;;;;;;;;;;;;;;;;;349877;28;1003;-76
2022/03/16 00:53:45;;;;;;;;;;;;;;;;;;349933;28;849;-76
2022/03/16 00:53:55;;;;;;;;;;;;;;;;;;349934;28;925;-76
2022/03/16 00:54:06;;;;;;;;;;;;;;;;;;349950;28;1181;-76
2022/03/16 00:54:16;;;;;;;;;;;;;;;;;;349960;28;861;-76
2022/03/16 00:54:27;;;;;;;;;;;;;;;;;;349985;28;866;-76
2022/03/16 00:54:37;;;;;;;;;;;;;;;;;;349966;28;932;-76
2022/03/16 00:54:47;;;;;;;;;;;;;;;;;;349919;28;1039;-76
2022/03/16 00:54:57;;;;;;;;;;;;;;;;;;349980;28;904;-76
2022/03/16 00:55:08;;;;;;;;;;;;;;;;;;349974;28;976;-76
2022/03/16 00:55:18;;;;;;;;;;;;;;;;;;349940;28;992;-76
2022/03/16 00:55:28;;;;;;;;;;;;;;;;;;349875;28;1043;-76
2022/03/16 00:55:38;;;;;;;;;;;;;;;;;;349948;28;821;-76
2022/03/16 00:55:48;;;;;;;;;;;;;;;;;;349974;28;972;-76
2022/03/16 00:55:59;;;;;;;;;;;;;;;;;;349971;28;817;-76
2022/03/16 00:56:09;;;;;;;;;;;;;;;;;;349791;28;1663;-76
2022/03/16 00:56:19;;;;;;;;;;;;;;;;;;349948;28;956;-75
2022/03/16 00:56:30;;;;;;;;;;;;;;;;;;349904;28;925;-76
2022/03/16 00:56:40;;;;;;;;;;;;;;;;;;349923;28;929;-76
2022/03/16 00:56:50;;;;;;;;;;;;;;;;;;349975;28;795;-76
2022/03/16 00:57:01;;;;;;;;;;;;;;;;;;349997;28;924;-76
2022/03/16 00:57:11;;;;;;;;;;;;;;;;;;349903;28;909;-76
2022/03/16 00:57:21;;;;;;;;;;;;;;;;;;349946;28;957;-76
2022/03/16 00:57:31;;;;;;;;;;;;;;;;;;349917;28;857;-76
2022/03/16 00:57:41;;;;;;;;;;;;;;;;;;349854;28;1008;-76
2022/03/16 00:57:52;;;;;;;;;;;;;;;;;;349981;28;888;-76
2022/03/16 00:58:02;;;;;;;;;;;;;;;;;;349807;28;1259;-76
2022/03/16 00:58:12;;;;;;;;;;;;;;;;;;349878;28;976;-76
2022/03/16 00:58:24;;;;;;;;;;;;;;;;;;349899;28;1059;-76
2022/03/16 00:58:35;;;;;;;;;;;;;;;;;;349899;28;868;-76
2022/03/16 00:58:45;;;;;;;;;;;;;;;;;;349988;28;909;-76
2022/03/16 00:58:55;;;;;;;;;;;;;;;;;;350007;28;1541;-76
2022/03/16 00:59:05;;;;;;;;;;;;;;;;;;350177;28;1739;-76
2022/03/16 00:59:16;;;;;;;;;;;;;;;;;;351039;28;1717;-76
2022/03/16 00:59:26;;;;;;;;;;;;;;;;;;351358;28;873;-76
2022/03/16 00:59:36;;;;;;;;;;;;;;;;;;351238;28;1051;-76
2022/03/16 00:59:46;;;;;;;;;;;;;;;;;;351337;28;937;-76
2022/03/16 00:59:58;;;;;;;;;;;;;;;;;;351343;28;983;-76
2022/03/16 01:00:10;;;;;;;;;;;;;;;;;;351339;28;959;-76
2022/03/16 01:00:20;;;;;;;;;;;;;;;;;;351346;28;991;-76
2022/03/16 01:00:30;;;;;;;;;;;;;;;;;;351279;28;1019;-76
2022/03/16 01:00:40;;;;;;;;;;;;;;;;;;351365;28;913;-76
2022/03/16 01:00:51;;;;;;;;;;;;;;;;;;351331;28;813;-76
2022/03/16 01:01:03;;;;;;;;;;;;;;;;;;351374;28;846;-76
2022/03/16 01:01:13;;;;;;;;;;;;;;;;;;351320;28;969;-76
2022/03/16 01:01:24;;;;;;;;;;;;;;;;;;351322;28;924;-76
2022/03/16 01:01:34;;;;;;;;;;;;;;;;;;349888;28;1510;-75
2022/03/16 01:01:44;;;;;;;;;;;;;;;;;;351315;28;936;-76
2022/03/16 01:01:54;;;;;;;;;;;;;;;;;;351405;28;839;-76
2022/03/16 01:02:05;;;;;;;;;;;;;;;;;;351327;28;814;-76
2022/03/16 01:02:15;;;;;;;;;;;;;;;;;;351363;28;873;-76
2022/03/16 01:02:26;;;;;;;;;;;;;;;;;;351400;28;778;-76
2022/03/16 01:02:36;;;;;;;;;;;;;;;;;;351367;28;920;-76
2022/03/16 01:02:46;;;;;;;;;;;;;;;;;;351357;28;976;-76
2022/03/16 01:02:57;;;;;;;;;;;;;;;;;;351323;28;909;-76
2022/03/16 01:03:07;;;;;;;;;;;;;;;;;;351238;28;1631;-76
2022/03/16 01:03:17;;;;;;;;;;;;;;;;;;349926;28;1787;-76
2022/03/16 01:03:28;;;;;;;;;;;;;;;;;;349966;28;918;-76
2022/03/16 01:03:41;;;;;;;;;;;;;;;;;;349964;28;872;-76
2022/03/16 01:03:51;;;;;;;;;;;;;;;;;;349848;28;913;-76
2022/03/16 01:04:02;;;;;;;;;;;;;;;;;;349865;28;1969;-76
2022/03/16 01:04:12;;;;;;;;;;;;;;;;;;349976;28;790;-76
2022/03/16 01:04:22;;;;;;;;;;;;;;;;;;349973;28;991;-76
2022/03/16 01:04:32;;;;;;;;;;;;;;;;;;349894;28;928;-76
2022/03/16 01:04:43;;;;;;;;;;;;;;;;;;349911;28;1019;-76
2022/03/16 01:04:53;;;;;;;;;;;;;;;;;;349946;28;975;-76
2022/03/16 01:05:04;;;;;;;;;;;;;;;;;;349977;28;925;-76
2022/03/16 01:05:14;;;;;;;;;;;;;;;;;;349942;28;968;-76
2022/03/16 01:05:24;;;;;;;;;;;;;;;;;;349923;28;901;-76
2022/03/16 01:05:34;;;;;;;;;;;;;;;;;;349891;28;1456;-76
2022/03/16 01:05:46;;;;;;;;;;;;;;;;;;349954;28;953;-76
2022/03/16 01:05:56;;;;;;;;;;;;;;;;;;349892;28;972;-76
2022/03/16 01:06:15;;;;;;;;;;;;;;;;;;350001;28;846;-76
2022/03/16 01:06:25;;;;;;;;;;;;;;;;;;350645;28;1169;-75
2022/03/16 01:06:35;;;;;;;;;;;;;;;;;;351058;28;889;-76
2022/03/16 01:06:45;;;;;;;;;;;;;;;;;;349910;28;977;-76
2022/03/16 01:06:56;;;;;;;;;;;;;;;;;;349859;28;1074;-76
2022/03/16 01:07:06;;;;;;;;;;;;;;;;;;349891;28;857;-75
2022/03/16 01:07:16;;;;;;;;;;;;;;;;;;349949;28;937;-76
2022/03/16 01:07:26;;;;;;;;;;;;;;;;;;349992;28;762;-76
2022/03/16 01:07:36;;;;;;;;;;;;;;;;;;349932;28;904;-76
2022/03/16 01:07:47;;;;;;;;;;;;;;;;;;349961;28;924;-76
2022/03/16 01:07:57;;;;;;;;;;;;;;;;;;349902;28;833;-76
2022/03/16 01:08:07;;;;;;;;;;;;;;;;;;349919;28;916;-76
2022/03/16 01:08:18;;;;;;;;;;;;;;;;;;349847;28;1026;-76
2022/03/16 01:08:28;;;;;;;;;;;;;;;;;;349968;28;833;-76
2022/03/16 01:08:40;;;;;;;;;;;;;;;;;;349918;28;916;-76
2022/03/16 01:08:50;;;;;;;;;;;;;;;;;;349870;28;1030;-76
2022/03/16 01:09:00;;;;;;;;;;;;;;;;;;349941;28;897;-76
2022/03/16 01:09:11;;;;;;;;;;;;;;;;;;349992;28;829;-76
2022/03/16 01:09:21;;;;;;;;;;;;;;;;;;349965;28;899;-76
2022/03/16 01:09:31;;;;;;;;;;;;;;;;;;349983;28;978;-76
2022/03/16 01:09:42;;;;;;;;;;;;;;;;;;349902;28;968;-76
2022/03/16 01:09:52;;;;;;;;;;;;;;;;;;349941;28;1013;-76
2022/03/16 01:10:02;;;;;;;;;;;;;;;;;;349933;28;1027;-76
2022/03/16 01:10:13;;;;;;;;;;;;;;;;;;349861;28;1043;-76
2022/03/16 01:10:23;;;;;;;;;;;;;;;;;;349920;28;742;-75
2022/03/16 01:10:33;;;;;;;;;;;;;;;;;;349890;28;972;-75
2022/03/16 01:10:43;;;;;;;;;;;;;;;;;;349854;28;1176;-75
2022/03/16 01:10:54;;;;;;;;;;;;;;;;;;349804;28;998;-75
2022/03/16 01:11:04;;;;;;;;;;;;;;;;;;349819;28;1023;-75
2022/03/16 01:11:14;;;;;;;;;;;;;;;;;;349796;28;1035;-75
2022/03/16 01:11:25;;;;;;;;;;;;;;;;;;349944;28;845;-75
2022/03/16 01:11:36;;;;;;;;;;;;;;;;;;349937;28;920;-75
2022/03/16 01:11:46;;;;;;;;;;;;;;;;;;349933;28;868;-75
2022/03/16 01:11:56;;;;;;;;;;;;;;;;;;349919;28;979;-75
2022/03/16 01:12:07;;;;;;;;;;;;;;;;;;349938;28;1112;-75
2022/03/16 01:12:17;;;;;;;;;;;;;;;;;;349915;28;845;-75
2022/03/16 01:12:27;;;;;;;;;;;;;;;;;;349960;28;866;-75
2022/03/16 01:12:37;;;;;;;;;;;;;;;;;;349859;28;956;-75
2022/03/16 01:12:48;;;;;;;;;;;;;;;;;;349919;28;925;-75
2022/03/16 01:12:58;;;;;;;;;;;;;;;;;;349942;28;972;-75
2022/03/16 01:13:08;;;;;;;;;;;;;;;;;;349961;28;849;-75
2022/03/16 01:13:18;;;;;;;;;;;;;;;;;;350024;28;924;-75
2022/03/16 01:13:29;;;;;;;;;;;;;;;;;;349894;28;912;-75
2022/03/16 01:13:40;;;;;;;;;;;;;;;;;;349955;28;940;-75
2022/03/16 01:13:50;;;;;;;;;;;;;;;;;;349931;28;972;-75
2022/03/16 01:14:00;;;;;;;;;;;;;;;;;;349920;28;976;-75
2022/03/16 01:14:10;;;;;;;;;;;;;;;;;;350097;28;1625;-76
2022/03/16 01:14:21;;;;;;;;;;;;;;;;;;350129;28;1763;-75
2022/03/16 01:14:31;;;;;;;;;;;;;;;;;;351089;28;1955;-76